sensor_id;sensor_type;location;lat;lon;timestamp;pressure;altitude;pressure_sealevel;temperature;humidity
12213;BME280;6169;44.158;22.788;2023-03-21T00:02:42;100932.19;;;14.41;40.87
12213;BME280;6169;44.158;22.788;2023-03-21T00:07:44;100928.63;;;14.95;40.29
12213;BME280;6169;44.158;22.788;2023-03-21T00:12:46;100923.56;;;15.14;40.44
12213;BME280;6169;44.158;22.788;2023-03-21T00:17:53;100928.91;;;14.99;41.07
12213;BME280;6169;44.158;22.788;2023-03-21T00:22:57;100925.44;;;15.08;41.57
12213;BME280;6169;44.158;22.788;2023-03-21T00:28:00;100912.19;;;15.27;41.33
12213;BME280;6169;44.158;22.788;2023-03-21T00:33:03;100919.22;;;15.18;41.35
12213;BME280;6169;44.158;22.788;2023-03-21T00:38:06;100913.97;;;15.11;41.79
12213;BME280;6169;44.158;22.788;2023-03-21T00:43:08;100918.16;;;15.24;41.63
12213;BME280;6169;44.158;22.788;2023-03-21T00:48:13;100922.13;;;15.44;41.09
12213;BME280;6169;44.158;22.788;2023-03-21T00:53:15;100915.47;;;15.67;40.78
12213;BME280;6169;44.158;22.788;2023-03-21T00:58:17;100918.25;;;15.34;41.45
12213;BME280;6169;44.158;22.788;2023-03-21T01:03:21;100906.38;;;15.24;42.01
12213;BME280;6169;44.158;22.788;2023-03-21T01:08:26;100915.81;;;15.43;41.66
12213;BME280;6169;44.158;22.788;2023-03-21T01:13:28;100911.41;;;15.37;42.09
12213;BME280;6169;44.158;22.788;2023-03-21T01:18:35;100915.75;;;15.28;42.56
12213;BME280;6169;44.158;22.788;2023-03-21T01:23:38;100906.22;;;15.41;42.41
12213;BME280;6169;44.158;22.788;2023-03-21T01:28:42;100860.56;;;15.09;42.58
12213;BME280;6169;44.158;22.788;2023-03-21T01:33:46;100897.66;;;15.32;42.40
12213;BME280;6169;44.158;22.788;2023-03-21T01:38:50;100908.06;;;14.92;43.24
12213;BME280;6169;44.158;22.788;2023-03-21T01:43:52;100900.31;;;14.84;43.96
12213;BME280;6169;44.158;22.788;2023-03-21T01:48:59;100906.09;;;14.61;44.22
12213;BME280;6169;44.158;22.788;2023-03-21T01:54:03;100892.34;;;14.78;43.94
12213;BME280;6169;44.158;22.788;2023-03-21T01:59:10;100888.72;;;15.04;43.57
12213;BME280;6169;44.158;22.788;2023-03-21T02:04:15;100870.44;;;15.15;43.65
12213;BME280;6169;44.158;22.788;2023-03-21T02:09:24;100879.75;;;15.14;43.60
12213;BME280;6169;44.158;22.788;2023-03-21T02:14:30;100878.53;;;14.95;44.31
12213;BME280;6169;44.158;22.788;2023-03-21T02:20:06;100875.47;;;15.28;43.51
12213;BME280;6169;44.158;22.788;2023-03-21T02:25:36;100866.84;;;14.72;44.75
12213;BME280;6169;44.158;22.788;2023-03-21T02:36:25;100852.97;;;14.84;44.30
12213;BME280;6169;44.158;22.788;2023-03-21T02:41:34;100839.53;;;14.77;44.34
12213;BME280;6169;44.158;22.788;2023-03-21T02:46:41;100862.19;;;14.73;44.64
12213;BME280;6169;44.158;22.788;2023-03-21T02:51:46;100866.06;;;14.49;44.98
12213;BME280;6169;44.158;22.788;2023-03-21T02:56:51;100863.03;;;14.19;45.73
12213;BME280;6169;44.158;22.788;2023-03-21T03:01:55;100861.56;;;14.11;45.70
12213;BME280;6169;44.158;22.788;2023-03-21T03:07:12;100881.66;;;14.49;44.80
12213;BME280;6169;44.158;22.788;2023-03-21T03:12:29;100886.75;;;14.13;45.62
12213;BME280;6169;44.158;22.788;2023-03-21T03:17:39;100884.16;;;14.01;45.76
12213;BME280;6169;44.158;22.788;2023-03-21T03:22:53;100893.31;;;13.51;46.63
12213;BME280;6169;44.158;22.788;2023-03-21T03:28:00;100892.13;;;13.25;48.08
12213;BME280;6169;44.158;22.788;2023-03-21T03:33:06;100875.84;;;13.52;46.53
12213;BME280;6169;44.158;22.788;2023-03-21T03:38:11;100879.00;;;13.44;46.96
12213;BME280;6169;44.158;22.788;2023-03-21T03:43:20;100877.22;;;13.33;47.23
12213;BME280;6169;44.158;22.788;2023-03-21T03:48:25;100877.38;;;13.26;48.01
12213;BME280;6169;44.158;22.788;2023-03-21T03:53:32;100874.88;;;13.64;46.89
12213;BME280;6169;44.158;22.788;2023-03-21T03:58:38;100885.78;;;13.58;46.54
12213;BME280;6169;44.158;22.788;2023-03-21T04:03:44;100902.75;;;13.44;47.45
12213;BME280;6169;44.158;22.788;2023-03-21T04:08:48;100897.91;;;13.29;47.34
12213;BME280;6169;44.158;22.788;2023-03-21T04:13:52;100911.97;;;13.21;47.86
12213;BME280;6169;44.158;22.788;2023-03-21T04:18:54;100916.16;;;13.45;47.35
12213;BME280;6169;44.158;22.788;2023-03-21T04:23:56;100920.22;;;13.43;47.32
12213;BME280;6169;44.158;22.788;2023-03-21T04:29:01;100928.84;;;13.18;47.52
12213;BME280;6169;44.158;22.788;2023-03-21T04:34:05;100930.16;;;12.98;48.17
12213;BME280;6169;44.158;22.788;2023-03-21T04:39:09;100929.94;;;13.33;46.90
12213;BME280;6169;44.158;22.788;2023-03-21T04:44:15;100930.97;;;13.32;47.13
12213;BME280;6169;44.158;22.788;2023-03-21T04:49:17;100948.13;;;13.28;46.58
12213;BME280;6169;44.158;22.788;2023-03-21T04:54:20;100953.00;;;13.26;46.12
12213;BME280;6169;44.158;22.788;2023-03-21T04:59:24;100941.41;;;13.35;47.11
12213;BME280;6169;44.158;22.788;2023-03-21T05:04:26;100946.03;;;13.35;47.84
12213;BME280;6169;44.158;22.788;2023-03-21T05:09:29;100949.03;;;13.50;46.53
12213;BME280;6169;44.158;22.788;2023-03-21T05:14:32;100942.81;;;13.38;46.97
12213;BME280;6169;44.158;22.788;2023-03-21T05:19:35;100951.00;;;13.38;47.36
12213;BME280;6169;44.158;22.788;2023-03-21T05:24:40;100956.34;;;13.67;46.90
12213;BME280;6169;44.158;22.788;2023-03-21T05:29:44;100954.31;;;13.74;47.05
12213;BME280;6169;44.158;22.788;2023-03-21T05:34:46;100951.44;;;13.86;47.35
12213;BME280;6169;44.158;22.788;2023-03-21T05:39:48;100955.59;;;14.10;47.29
12213;BME280;6169;44.158;22.788;2023-03-21T05:44:52;100958.94;;;14.17;46.93
12213;BME280;6169;44.158;22.788;2023-03-21T05:49:54;100955.19;;;14.45;46.40
12213;BME280;6169;44.158;22.788;2023-03-21T05:54:56;100944.56;;;14.49;47.78
12213;BME280;6169;44.158;22.788;2023-03-21T06:00:00;100945.09;;;14.73;46.48
12213;BME280;6169;44.158;22.788;2023-03-21T06:05:03;100941.81;;;14.71;46.17
12213;BME280;6169;44.158;22.788;2023-03-21T06:10:06;100943.34;;;14.89;46.17
12213;BME280;6169;44.158;22.788;2023-03-21T06:15:11;100942.25;;;15.22;44.82
12213;BME280;6169;44.158;22.788;2023-03-21T06:20:13;100943.91;;;15.23;45.13
12213;BME280;6169;44.158;22.788;2023-03-21T06:25:16;100950.09;;;15.08;45.25
12213;BME280;6169;44.158;22.788;2023-03-21T06:30:20;100936.75;;;15.54;44.59
12213;BME280;6169;44.158;22.788;2023-03-21T06:35:22;100948.34;;;15.67;44.03
12213;BME280;6169;44.158;22.788;2023-03-21T06:40:24;100945.25;;;16.11;43.02
12213;BME280;6169;44.158;22.788;2023-03-21T06:45:28;100948.78;;;15.96;43.24
12213;BME280;6169;44.158;22.788;2023-03-21T06:50:30;100951.19;;;15.45;44.28
12213;BME280;6169;44.158;22.788;2023-03-21T06:55:32;100940.47;;;15.86;43.04
12213;BME280;6169;44.158;22.788;2023-03-21T07:00:37;100934.81;;;16.02;42.10
12213;BME280;6169;44.158;22.788;2023-03-21T07:05:39;100947.75;;;16.12;41.76
12213;BME280;6169;44.158;22.788;2023-03-21T07:10:42;100954.34;;;16.16;42.37
12213;BME280;6169;44.158;22.788;2023-03-21T07:15:46;100965.88;;;16.18;41.40
12213;BME280;6169;44.158;22.788;2023-03-21T07:20:49;100961.53;;;16.33;41.12
12213;BME280;6169;44.158;22.788;2023-03-21T07:25:52;100963.03;;;16.66;41.11
12213;BME280;6169;44.158;22.788;2023-03-21T07:30:58;100961.69;;;17.09;41.28
12213;BME280;6169;44.158;22.788;2023-03-21T07:36:01;100966.66;;;17.23;40.88
12213;BME280;6169;44.158;22.788;2023-03-21T07:41:03;100969.66;;;17.52;40.48
12213;BME280;6169;44.158;22.788;2023-03-21T07:46:07;100971.78;;;17.86;38.64
12213;BME280;6169;44.158;22.788;2023-03-21T07:51:09;100969.81;;;18.12;37.94
12213;BME280;6169;44.158;22.788;2023-03-21T07:56:11;100969.94;;;18.46;37.82
12213;BME280;6169;44.158;22.788;2023-03-21T08:01:15;100971.44;;;18.67;36.68
12213;BME280;6169;44.158;22.788;2023-03-21T08:06:17;100961.66;;;18.90;35.99
12213;BME280;6169;44.158;22.788;2023-03-21T08:11:20;100964.00;;;18.68;36.38
12213;BME280;6169;44.158;22.788;2023-03-21T08:16:24;100945.38;;;18.55;37.88
12213;BME280;6169;44.158;22.788;2023-03-21T08:21:27;100947.91;;;18.46;36.02
12213;BME280;6169;44.158;22.788;2023-03-21T08:26:29;100945.19;;;18.36;36.29
12213;BME280;6169;44.158;22.788;2023-03-21T08:31:33;100949.41;;;18.67;35.90
12213;BME280;6169;44.158;22.788;2023-03-21T08:36:35;100934.28;;;18.65;35.80
12213;BME280;6169;44.158;22.788;2023-03-21T08:41:38;100932.22;;;18.46;35.40
12213;BME280;6169;44.158;22.788;2023-03-21T08:46:41;100934.28;;;18.65;36.01
12213;BME280;6169;44.158;22.788;2023-03-21T08:51:43;100924.28;;;18.79;35.07
12213;BME280;6169;44.158;22.788;2023-03-21T08:56:46;100928.00;;;19.33;33.72
12213;BME280;6169;44.158;22.788;2023-03-21T09:01:50;100929.44;;;19.54;33.61
12213;BME280;6169;44.158;22.788;2023-03-21T09:06:52;100930.25;;;20.27;32.89
12213;BME280;6169;44.158;22.788;2023-03-21T09:11:55;100931.53;;;20.72;32.19
12213;BME280;6169;44.158;22.788;2023-03-21T09:16:59;100927.47;;;19.84;32.88
12213;BME280;6169;44.158;22.788;2023-03-21T09:22:01;100913.25;;;20.39;32.43
12213;BME280;6169;44.158;22.788;2023-03-21T09:27:04;100914.28;;;20.62;31.98
12213;BME280;6169;44.158;22.788;2023-03-21T09:32:08;100909.81;;;20.47;32.22
12213;BME280;6169;44.158;22.788;2023-03-21T09:37:11;100901.81;;;20.64;32.12
12213;BME280;6169;44.158;22.788;2023-03-21T09:42:31;100902.06;;;21.33;31.15
12213;BME280;6169;44.158;22.788;2023-03-21T09:47:41;100893.78;;;20.49;30.74
12213;BME280;6169;44.158;22.788;2023-03-21T09:52:52;100902.19;;;21.09;30.74
12213;BME280;6169;44.158;22.788;2023-03-21T09:58:03;100895.09;;;20.70;29.85
12213;BME280;6169;44.158;22.788;2023-03-21T10:03:17;100900.66;;;21.03;29.90
12213;BME280;6169;44.158;22.788;2023-03-21T10:08:25;100903.06;;;21.24;29.54
12213;BME280;6169;44.158;22.788;2023-03-21T10:13:32;100885.88;;;21.41;28.60
12213;BME280;6169;44.158;22.788;2023-03-21T10:18:37;100895.63;;;22.07;28.56
12213;BME280;6169;44.158;22.788;2023-03-21T10:23:40;100890.75;;;21.02;29.23
12213;BME280;6169;44.158;22.788;2023-03-21T10:28:43;100889.09;;;21.62;28.13
12213;BME280;6169;44.158;22.788;2023-03-21T10:33:49;100884.75;;;22.24;27.68
12213;BME280;6169;44.158;22.788;2023-03-21T10:38:53;100874.66;;;21.65;28.12
12213;BME280;6169;44.158;22.788;2023-03-21T10:44:05;100882.72;;;21.47;27.98
12213;BME280;6169;44.158;22.788;2023-03-21T10:49:09;100879.38;;;21.50;27.90
12213;BME280;6169;44.158;22.788;2023-03-21T10:54:13;100869.75;;;21.75;27.74
12213;BME280;6169;44.158;22.788;2023-03-21T10:59:17;100859.28;;;22.59;27.28
12213;BME280;6169;44.158;22.788;2023-03-21T11:04:25;100851.78;;;23.04;26.34
12213;BME280;6169;44.158;22.788;2023-03-21T11:09:43;100845.28;;;23.09;26.14
12213;BME280;6169;44.158;22.788;2023-03-21T11:14:47;100853.16;;;22.48;26.90
12213;BME280;6169;44.158;22.788;2023-03-21T11:19:53;100840.31;;;23.68;25.09
12213;BME280;6169;44.158;22.788;2023-03-21T11:25:00;100835.50;;;24.69;24.49
12213;BME280;6169;44.158;22.788;2023-03-21T11:30:03;100834.28;;;23.35;25.46
12213;BME280;6169;44.158;22.788;2023-03-21T11:35:14;100819.72;;;23.60;25.45
12213;BME280;6169;44.158;22.788;2023-03-21T11:40:22;100813.13;;;24.31;25.42
12213;BME280;6169;44.158;22.788;2023-03-21T11:45:26;100802.13;;;24.00;25.65
12213;BME280;6169;44.158;22.788;2023-03-21T11:50:34;100796.41;;;23.70;25.59
12213;BME280;6169;44.158;22.788;2023-03-21T11:55:43;100787.66;;;23.37;26.44
12213;BME280;6169;44.158;22.788;2023-03-21T12:00:53;100785.31;;;23.70;25.63
12213;BME280;6169;44.158;22.788;2023-03-21T12:06:00;100776.09;;;23.04;26.91
12213;BME280;6169;44.158;22.788;2023-03-21T12:11:07;100780.41;;;23.58;26.77
12213;BME280;6169;44.158;22.788;2023-03-21T12:16:24;100773.78;;;23.37;26.13
12213;BME280;6169;44.158;22.788;2023-03-21T12:21:33;100766.97;;;23.52;25.75
12213;BME280;6169;44.158;22.788;2023-03-21T12:26:43;100761.59;;;23.07;25.65
12213;BME280;6169;44.158;22.788;2023-03-21T12:31:58;100760.28;;;23.44;24.74
12213;BME280;6169;44.158;22.788;2023-03-21T12:37:11;100761.00;;;23.76;24.03
12213;BME280;6169;44.158;22.788;2023-03-21T12:47:54;100747.31;;;23.22;25.57
12213;BME280;6169;44.158;22.788;2023-03-21T12:53:06;100732.31;;;22.30;25.45
12213;BME280;6169;44.158;22.788;2023-03-21T12:58:14;100732.06;;;22.93;24.90
12213;BME280;6169;44.158;22.788;2023-03-21T13:03:20;100736.25;;;22.82;24.66
12213;BME280;6169;44.158;22.788;2023-03-21T13:08:29;100732.84;;;22.63;25.16
12213;BME280;6169;44.158;22.788;2023-03-21T13:13:37;100727.59;;;22.84;24.50
12213;BME280;6169;44.158;22.788;2023-03-21T13:18:50;100730.66;;;23.13;24.47
12213;BME280;6169;44.158;22.788;2023-03-21T13:24:01;100725.09;;;23.13;24.51
12213;BME280;6169;44.158;22.788;2023-03-21T13:29:22;100724.75;;;23.15;24.61
12213;BME280;6169;44.158;22.788;2023-03-21T13:34:26;100724.97;;;23.27;24.70
12213;BME280;6169;44.158;22.788;2023-03-21T13:39:30;100726.59;;;23.28;23.89
12213;BME280;6169;44.158;22.788;2023-03-21T13:44:39;100722.00;;;23.15;24.15
12213;BME280;6169;44.158;22.788;2023-03-21T13:49:42;100721.78;;;22.94;24.18
12213;BME280;6169;44.158;22.788;2023-03-21T13:55:14;100710.97;;;22.84;23.71
12213;BME280;6169;44.158;22.788;2023-03-21T14:00:21;100711.13;;;23.36;23.34
12213;BME280;6169;44.158;22.788;2023-03-21T14:05:29;100712.22;;;23.26;23.11
12213;BME280;6169;44.158;22.788;2023-03-21T14:10:36;100703.31;;;22.89;23.15
12213;BME280;6169;44.158;22.788;2023-03-21T14:15:41;100696.25;;;23.32;22.78
12213;BME280;6169;44.158;22.788;2023-03-21T14:20:44;100697.16;;;23.50;23.11
12213;BME280;6169;44.158;22.788;2023-03-21T14:25:55;100690.09;;;23.44;23.14
12213;BME280;6169;44.158;22.788;2023-03-21T14:30:58;100690.94;;;23.44;23.25
12213;BME280;6169;44.158;22.788;2023-03-21T14:36:05;100686.81;;;23.24;23.60
12213;BME280;6169;44.158;22.788;2023-03-21T14:41:21;100687.38;;;22.64;24.53
12213;BME280;6169;44.158;22.788;2023-03-21T14:46:24;100680.06;;;22.68;24.15
12213;BME280;6169;44.158;22.788;2023-03-21T14:51:27;100689.19;;;22.68;24.46
12213;BME280;6169;44.158;22.788;2023-03-21T14:56:33;100674.31;;;22.56;23.93
12213;BME280;6169;44.158;22.788;2023-03-21T15:01:36;100684.63;;;22.33;24.63
12213;BME280;6169;44.158;22.788;2023-03-21T15:06:54;100681.25;;;22.44;24.75
12213;BME280;6169;44.158;22.788;2023-03-21T15:11:59;100683.25;;;22.53;24.77
12213;BME280;6169;44.158;22.788;2023-03-21T15:17:03;100693.59;;;21.93;25.24
12213;BME280;6169;44.158;22.788;2023-03-21T15:22:12;100681.88;;;22.41;24.84
12213;BME280;6169;44.158;22.788;2023-03-21T15:27:19;100674.00;;;22.26;25.57
12213;BME280;6169;44.158;22.788;2023-03-21T15:32:26;100678.13;;;22.37;25.55
12213;BME280;6169;44.158;22.788;2023-03-21T15:37:33;100677.72;;;22.53;25.52
12213;BME280;6169;44.158;22.788;2023-03-21T15:42:38;100680.34;;;22.58;25.80
12213;BME280;6169;44.158;22.788;2023-03-21T15:47:48;100679.75;;;21.71;26.79
12213;BME280;6169;44.158;22.788;2023-03-21T15:52:51;100691.69;;;21.30;26.71
12213;BME280;6169;44.158;22.788;2023-03-21T15:58:00;100688.28;;;21.60;27.41
12213;BME280;6169;44.158;22.788;2023-03-21T16:03:09;100680.63;;;21.44;27.86
12213;BME280;6169;44.158;22.788;2023-03-21T16:08:18;100682.50;;;20.52;28.57
12213;BME280;6169;44.158;22.788;2023-03-21T16:13:22;100683.94;;;21.04;28.07
12213;BME280;6169;44.158;22.788;2023-03-21T16:18:25;100680.06;;;21.05;27.92
12213;BME280;6169;44.158;22.788;2023-03-21T16:23:29;100673.22;;;21.16;27.53
12213;BME280;6169;44.158;22.788;2023-03-21T16:28:32;100671.44;;;21.21;27.46
12213;BME280;6169;44.158;22.788;2023-03-21T16:33:34;100681.88;;;20.68;28.16
12213;BME280;6169;44.158;22.788;2023-03-21T16:38:37;100684.19;;;20.94;28.08
12213;BME280;6169;44.158;22.788;2023-03-21T16:43:41;100692.66;;;20.84;28.64
12213;BME280;6169;44.158;22.788;2023-03-21T16:48:45;100684.69;;;20.96;29.06
12213;BME280;6169;44.158;22.788;2023-03-21T16:53:48;100682.88;;;20.45;29.93
12213;BME280;6169;44.158;22.788;2023-03-21T16:58:52;100681.03;;;20.40;30.90
12213;BME280;6169;44.158;22.788;2023-03-21T17:03:55;100689.38;;;20.21;31.79
12213;BME280;6169;44.158;22.788;2023-03-21T17:08:59;100689.66;;;20.20;32.23
12213;BME280;6169;44.158;22.788;2023-03-21T17:14:03;100689.41;;;20.35;32.01
12213;BME280;6169;44.158;22.788;2023-03-21T17:19:11;100687.94;;;20.24;32.47
12213;BME280;6169;44.158;22.788;2023-03-21T17:24:13;100683.94;;;19.97;33.56
12213;BME280;6169;44.158;22.788;2023-03-21T17:29:17;100696.41;;;19.95;34.11
12213;BME280;6169;44.158;22.788;2023-03-21T17:34:20;100697.84;;;19.73;35.40
12213;BME280;6169;44.158;22.788;2023-03-21T17:39:24;100718.41;;;19.19;35.50
12213;BME280;6169;44.158;22.788;2023-03-21T17:44:29;100728.63;;;19.62;35.87
12213;BME280;6169;44.158;22.788;2023-03-21T17:49:31;100730.03;;;19.59;35.78
12213;BME280;6169;44.158;22.788;2023-03-21T17:54:34;100732.16;;;19.43;36.80
12213;BME280;6169;44.158;22.788;2023-03-21T17:59:38;100735.16;;;18.99;39.64
12213;BME280;6169;44.158;22.788;2023-03-21T18:04:40;100737.13;;;19.41;39.54
12213;BME280;6169;44.158;22.788;2023-03-21T18:09:42;100750.16;;;18.87;41.09
12213;BME280;6169;44.158;22.788;2023-03-21T18:14:46;100745.28;;;18.79;41.77
12213;BME280;6169;44.158;22.788;2023-03-21T18:19:49;100736.06;;;18.94;41.75
12213;BME280;6169;44.158;22.788;2023-03-21T18:24:51;100742.84;;;19.02;41.41
12213;BME280;6169;44.158;22.788;2023-03-21T18:29:57;100734.94;;;19.19;41.04
12213;BME280;6169;44.158;22.788;2023-03-21T18:34:59;100736.91;;;18.89;41.45
12213;BME280;6169;44.158;22.788;2023-03-21T18:40:01;100741.56;;;18.94;41.09
12213;BME280;6169;44.158;22.788;2023-03-21T18:45:10;100742.19;;;18.86;41.25
12213;BME280;6169;44.158;22.788;2023-03-21T18:50:13;100743.50;;;18.93;41.31
12213;BME280;6169;44.158;22.788;2023-03-21T18:55:16;100750.22;;;19.06;41.17
12213;BME280;6169;44.158;22.788;2023-03-21T19:00:21;100747.63;;;18.62;42.48
12213;BME280;6169;44.158;22.788;2023-03-21T19:05:25;100752.50;;;18.75;42.21
12213;BME280;6169;44.158;22.788;2023-03-21T19:10:28;100744.94;;;18.57;43.18
12213;BME280;6169;44.158;22.788;2023-03-21T19:15:32;100745.88;;;18.76;42.84
12213;BME280;6169;44.158;22.788;2023-03-21T19:20:35;100750.34;;;18.67;43.30
12213;BME280;6169;44.158;22.788;2023-03-21T19:25:37;100745.59;;;18.78;43.65
12213;BME280;6169;44.158;22.788;2023-03-21T19:30:42;100742.84;;;18.78;43.53
12213;BME280;6169;44.158;22.788;2023-03-21T19:35:45;100745.41;;;18.64;44.78
12213;BME280;6169;44.158;22.788;2023-03-21T19:40:48;100737.28;;;19.07;43.48
12213;BME280;6169;44.158;22.788;2023-03-21T19:45:52;100743.97;;;19.01;43.14
12213;BME280;6169;44.158;22.788;2023-03-21T19:50:56;100745.53;;;19.07;43.03
12213;BME280;6169;44.158;22.788;2023-03-21T19:56:01;100750.31;;;18.72;43.89
12213;BME280;6169;44.158;22.788;2023-03-21T20:01:05;100752.50;;;18.70;43.85
12213;BME280;6169;44.158;22.788;2023-03-21T20:06:08;100744.78;;;18.77;43.63
12213;BME280;6169;44.158;22.788;2023-03-21T20:11:11;100753.53;;;18.50;44.63
12213;BME280;6169;44.158;22.788;2023-03-21T20:16:16;100749.78;;;18.01;46.30
12213;BME280;6169;44.158;22.788;2023-03-21T20:21:19;100740.31;;;18.52;45.22
12213;BME280;6169;44.158;22.788;2023-03-21T20:26:21;100739.38;;;18.33;45.58
12213;BME280;6169;44.158;22.788;2023-03-21T20:31:25;100733.91;;;17.88;47.44
12213;BME280;6169;44.158;22.788;2023-03-21T20:36:27;100741.56;;;17.96;47.03
12213;BME280;6169;44.158;22.788;2023-03-21T20:41:29;100744.13;;;17.28;48.00
12213;BME280;6169;44.158;22.788;2023-03-21T20:46:33;100739.91;;;18.00;46.12
12213;BME280;6169;44.158;22.788;2023-03-21T20:51:35;100745.94;;;18.71;43.74
12213;BME280;6169;44.158;22.788;2023-03-21T20:56:38;100745.19;;;18.60;43.94
12213;BME280;6169;44.158;22.788;2023-03-21T21:01:41;100752.72;;;18.15;45.20
12213;BME280;6169;44.158;22.788;2023-03-21T21:06:44;100763.63;;;18.60;44.71
12213;BME280;6169;44.158;22.788;2023-03-21T21:11:47;100758.66;;;17.88;46.29
12213;BME280;6169;44.158;22.788;2023-03-21T21:16:51;100764.75;;;17.80;46.87
12213;BME280;6169;44.158;22.788;2023-03-21T21:21:54;100764.81;;;17.70;47.07
12213;BME280;6169;44.158;22.788;2023-03-21T21:26:56;100762.50;;;17.92;46.92
12213;BME280;6169;44.158;22.788;2023-03-21T21:31:59;100773.63;;;17.67;47.38
12213;BME280;6169;44.158;22.788;2023-03-21T21:37:04;100778.63;;;17.54;47.89
12213;BME280;6169;44.158;22.788;2023-03-21T21:42:06;100790.72;;;17.58;47.93
12213;BME280;6169;44.158;22.788;2023-03-21T21:47:10;100795.00;;;17.75;47.82
12213;BME280;6169;44.158;22.788;2023-03-21T21:52:13;100796.97;;;17.69;47.76
12213;BME280;6169;44.158;22.788;2023-03-21T21:57:21;100801.97;;;17.62;48.08
12213;BME280;6169;44.158;22.788;2023-03-21T22:02:25;100804.69;;;17.67;47.61
12213;BME280;6169;44.158;22.788;2023-03-21T22:07:27;100824.91;;;17.16;49.00
12213;BME280;6169;44.158;22.788;2023-03-21T22:12:29;100827.41;;;16.62;50.63
12213;BME280;6169;44.158;22.788;2023-03-21T22:17:33;100829.91;;;16.68;50.19
12213;BME280;6169;44.158;22.788;2023-03-21T22:22:36;100834.03;;;16.71;50.42
12213;BME280;6169;44.158;22.788;2023-03-21T22:27:38;100779.91;;;16.92;48.62
12213;BME280;6169;44.158;22.788;2023-03-21T22:32:44;100835.88;;;17.32;49.10
12213;BME280;6169;44.158;22.788;2023-03-21T22:37:46;100832.28;;;17.36;48.96
12213;BME280;6169;44.158;22.788;2023-03-21T22:42:48;100824.56;;;17.44;48.81
12213;BME280;6169;44.158;22.788;2023-03-21T22:47:52;100840.84;;;17.25;49.15
12213;BME280;6169;44.158;22.788;2023-03-21T22:52:54;100832.91;;;16.77;50.63
12213;BME280;6169;44.158;22.788;2023-03-21T22:57:56;100833.75;;;16.78;50.72
12213;BME280;6169;44.158;22.788;2023-03-21T23:03:00;100836.78;;;16.71;50.96
12213;BME280;6169;44.158;22.788;2023-03-21T23:08:02;100831.00;;;16.78;51.58
12213;BME280;6169;44.158;22.788;2023-03-21T23:13:05;100834.00;;;16.45;52.61
12213;BME280;6169;44.158;22.788;2023-03-21T23:18:09;100835.00;;;15.98;54.40
12213;BME280;6169;44.158;22.788;2023-03-21T23:23:11;100839.13;;;16.16;53.85
12213;BME280;6169;44.158;22.788;2023-03-21T23:28:13;100840.88;;;16.53;53.23
12213;BME280;6169;44.158;22.788;2023-03-21T23:33:17;100841.41;;;16.55;52.38
12213;BME280;6169;44.158;22.788;2023-03-21T23:38:19;100833.47;;;16.64;52.92
12213;BME280;6169;44.158;22.788;2023-03-21T23:43:22;100828.53;;;16.66;52.52
12213;BME280;6169;44.158;22.788;2023-03-21T23:48:25;100825.50;;;16.42;53.83
12213;BME280;6169;44.158;22.788;2023-03-21T23:53:27;100828.19;;;16.21;54.93
12213;BME280;6169;44.158;22.788;2023-03-21T23:58:30;100834.75;;;16.25;54.88
